createdAt,value
2023-02-28T00:01:40.717Z,103228.22
2023-02-28T00:04:12.696Z,103218.66
2023-02-28T00:06:44.913Z,103219.63
2023-02-28T00:09:16.859Z,103224.00
2023-02-28T00:11:48.853Z,103225.69
2023-02-28T00:14:20.932Z,103224.47
2023-02-28T00:16:52.969Z,103228.63
2023-02-28T00:19:25.159Z,103222.94
2023-02-28T00:21:57.264Z,103217.69
2023-02-28T00:24:29.196Z,103220.91
2023-02-28T00:27:01.667Z,103225.22
2023-02-28T00:29:33.661Z,103230.41
2023-02-28T00:32:12.452Z,103229.50
2023-02-28T00:34:48.374Z,103229.91
2023-02-28T00:40:12.648Z,103236.13
2023-02-28T00:42:49.984Z,103223.09
2023-02-28T00:45:22.032Z,103228.13
2023-02-28T00:47:54.031Z,103231.72
2023-02-28T00:50:26.078Z,103224.13
2023-02-28T00:53:00.798Z,103227.44
2023-02-28T00:55:32.861Z,103227.34
2023-02-28T00:58:04.846Z,103233.34
2023-02-28T01:00:36.876Z,103231.66
2023-02-28T01:03:08.840Z,103222.81
2023-02-28T01:05:42.089Z,103229.69
2023-02-28T01:08:15.448Z,103221.78
2023-02-28T01:11:00.766Z,103231.19
2023-02-28T01:13:32.767Z,103225.41
2023-02-28T01:16:05.281Z,103232.81
2023-02-28T01:18:38.268Z,103239.94
2023-02-28T01:21:16.408Z,103233.97
2023-02-28T01:23:49.290Z,103243.72
2023-02-28T01:26:23.614Z,103241.22
2023-02-28T01:28:56.349Z,103236.84
2023-02-28T01:31:28.749Z,103240.31
2023-02-28T01:34:00.961Z,103244.16
2023-02-28T01:36:32.972Z,103244.78
2023-02-28T01:39:05.423Z,103241.63
2023-02-28T01:41:37.681Z,103244.34
2023-02-28T01:44:59.306Z,103244.16
2023-02-28T01:47:40.247Z,103245.78
2023-02-28T01:50:24.437Z,103240.91
2023-02-28T01:53:01.347Z,103248.88
2023-02-28T01:55:33.921Z,103245.81
2023-02-28T01:58:08.265Z,103244.47
2023-02-28T02:00:41.851Z,103247.31
2023-02-28T02:03:20.075Z,103241.97
2023-02-28T02:05:52.182Z,103235.09
2023-02-28T02:08:30.310Z,103238.56
2023-02-28T02:11:04.895Z,103235.97
2023-02-28T02:14:01.546Z,103237.78
2023-02-28T02:16:44.981Z,103236.81
2023-02-28T02:20:00.958Z,103236.47
2023-02-28T02:23:13.579Z,103237.00
2023-02-28T02:26:22.784Z,103235.38
2023-02-28T02:29:35.512Z,103234.75
2023-02-28T02:33:05.205Z,103228.25
2023-02-28T02:35:55.574Z,103233.59
2023-02-28T02:38:41.633Z,103225.75
2023-02-28T02:41:53.310Z,103222.81
2023-02-28T02:44:40.378Z,103230.22
2023-02-28T02:47:18.863Z,103232.41
2023-02-28T02:49:58.782Z,103230.22
2023-02-28T02:52:43.586Z,103236.69
2023-02-28T02:55:19.225Z,103238.75
2023-02-28T02:58:15.547Z,103228.63
2023-02-28T03:00:54.737Z,103234.19
2023-02-28T03:03:29.997Z,103231.44
2023-02-28T03:06:04.226Z,103230.44
2023-02-28T03:08:39.124Z,103238.75
2023-02-28T03:11:18.156Z,103226.16
2023-02-28T03:14:41.273Z,103232.41
2023-02-28T03:17:28.284Z,103234.19
2023-02-28T03:20:18.499Z,103236.78
2023-02-28T03:23:24.160Z,103233.13
2023-02-28T03:26:15.186Z,103237.75
2023-02-28T03:29:04.832Z,103234.38
2023-02-28T03:32:12.513Z,103237.38
2023-02-28T03:35:05.952Z,103232.56
2023-02-28T03:37:47.716Z,103237.44
2023-02-28T03:40:24.610Z,103246.00
2023-02-28T03:43:08.982Z,103242.34
2023-02-28T03:45:43.071Z,103246.22
2023-02-28T03:48:23.129Z,103240.97
2023-02-28T03:50:59.590Z,103239.28
2023-02-28T03:53:43.744Z,103240.50
2023-02-28T03:56:45.138Z,103248.34
2023-02-28T03:59:28.819Z,103245.28
2023-02-28T04:02:01.127Z,103249.56
2023-02-28T04:04:33.424Z,103246.97
2023-02-28T04:07:10.234Z,103248.06
2023-02-28T04:09:44.760Z,103249.78
2023-02-28T04:12:16.880Z,103252.75
2023-02-28T04:14:48.871Z,103257.03
2023-02-28T04:17:21.145Z,103258.09
2023-02-28T04:19:53.103Z,103268.16
2023-02-28T04:22:29.160Z,103262.28
2023-02-28T04:25:01.101Z,103260.69
2023-02-28T04:27:33.061Z,103261.19
2023-02-28T04:30:12.263Z,103258.91
2023-02-28T04:32:44.320Z,103254.72
2023-02-28T04:35:18.042Z,103250.34
2023-02-28T04:37:51.470Z,103255.00
2023-02-28T04:40:23.474Z,103259.00
2023-02-28T04:42:55.500Z,103267.56
2023-02-28T04:45:27.493Z,103265.06
2023-02-28T04:47:59.768Z,103262.56
2023-02-28T04:50:33.557Z,103257.91
2023-02-28T04:53:05.694Z,103261.00
2023-02-28T04:55:37.598Z,103256.72
2023-02-28T04:58:10.099Z,103252.47
2023-02-28T05:00:42.154Z,103259.91
2023-02-28T05:03:14.143Z,103265.19
2023-02-28T05:05:46.086Z,103269.56
2023-02-28T05:08:18.036Z,103263.69
2023-02-28T05:10:50.012Z,103259.69
2023-02-28T05:13:24.935Z,103263.72
2023-02-28T05:15:57.458Z,103269.16
2023-02-28T05:18:30.303Z,103256.22
2023-02-28T05:21:04.668Z,103263.19
2023-02-28T05:23:36.849Z,103267.28
2023-02-28T05:26:09.212Z,103262.91
2023-02-28T05:28:41.183Z,103268.66
2023-02-28T05:31:13.670Z,103270.25
2023-02-28T05:33:45.837Z,103262.91
2023-02-28T05:36:18.122Z,103266.16
2023-02-28T05:38:51.559Z,103263.38
2023-02-28T05:41:29.545Z,103270.84
2023-02-28T05:44:02.403Z,103274.09
2023-02-28T05:46:34.485Z,103267.75
2023-02-28T05:49:06.623Z,103276.28
2023-02-28T05:51:43.053Z,103277.06
2023-02-28T05:54:17.053Z,103284.72
2023-02-28T05:56:49.034Z,103283.81
2023-02-28T05:59:20.982Z,103278.25
2023-02-28T06:01:54.258Z,103280.59
2023-02-28T06:04:31.986Z,103282.88
2023-02-28T06:07:04.449Z,103289.78
2023-02-28T06:09:37.179Z,103288.59
2023-02-28T06:12:14.495Z,103299.69
2023-02-28T06:14:46.861Z,103300.81
2023-02-28T06:17:19.172Z,103300.97
2023-02-28T06:19:51.237Z,103300.66
2023-02-28T06:22:23.441Z,103303.34
2023-02-28T06:24:56.194Z,103310.28
2023-02-28T06:27:28.183Z,103310.38
2023-02-28T06:30:00.544Z,103310.75
2023-02-28T06:32:32.605Z,103306.91
2023-02-28T06:35:05.615Z,103304.91
2023-02-28T06:37:39.126Z,103306.81
2023-02-28T06:40:14.107Z,103312.44
2023-02-28T06:42:46.087Z,103312.66
2023-02-28T06:45:18.279Z,103315.53
2023-02-28T06:47:53.140Z,103320.38
2023-02-28T06:50:25.099Z,103314.91
2023-02-28T06:52:57.141Z,103318.47
2023-02-28T06:55:30.759Z,103316.91
2023-02-28T06:58:02.848Z,103319.59
2023-02-28T07:00:35.290Z,103321.16
2023-02-28T07:03:07.241Z,103320.75
2023-02-28T07:05:40.556Z,103322.53
2023-02-28T07:08:12.670Z,103332.06
2023-02-28T07:10:45.170Z,103335.16
2023-02-28T07:13:17.169Z,103332.59
2023-02-28T07:16:05.791Z,103331.69
2023-02-28T07:18:38.686Z,103337.38
2023-02-28T07:21:12.442Z,103332.44
2023-02-28T07:23:44.506Z,103341.41
2023-02-28T07:26:20.409Z,103344.09
2023-02-28T07:28:52.425Z,103343.50
2023-02-28T07:31:25.134Z,103338.03
2023-02-28T07:33:57.536Z,103340.72
2023-02-28T07:36:29.607Z,103337.50
2023-02-28T07:39:01.650Z,103335.66
2023-02-28T07:41:35.157Z,103341.19
2023-02-28T07:44:07.195Z,103351.13
2023-02-28T07:46:39.568Z,103351.25
2023-02-28T07:49:11.634Z,103342.13
2023-02-28T07:51:43.824Z,103345.00
2023-02-28T07:54:15.771Z,103344.03
2023-02-28T07:56:47.743Z,103343.34
2023-02-28T07:59:19.750Z,103346.84
2023-02-28T08:01:52.408Z,103351.75
2023-02-28T08:04:24.410Z,103353.44
2023-02-28T08:06:57.454Z,103343.06
2023-02-28T08:09:30.954Z,103346.06
2023-02-28T08:12:02.929Z,103341.25
2023-02-28T08:14:35.641Z,103343.63
2023-02-28T08:17:07.969Z,103352.84
2023-02-28T08:19:40.242Z,103348.63
2023-02-28T08:22:15.100Z,103348.56
2023-02-28T08:24:47.193Z,103343.78
2023-02-28T08:27:20.020Z,103351.28
2023-02-28T08:29:52.068Z,103350.78
2023-02-28T08:32:29.713Z,103348.63
2023-02-28T08:35:02.916Z,103347.97
2023-02-28T08:37:34.965Z,103347.63
2023-02-28T08:40:08.216Z,103357.06
2023-02-28T08:42:40.248Z,103349.00
2023-02-28T08:45:13.598Z,103344.97
2023-02-28T08:47:45.561Z,103350.41
2023-02-28T08:50:17.633Z,103349.53
2023-02-28T08:52:49.790Z,103350.50
2023-02-28T08:55:21.766Z,103352.56
2023-02-28T08:57:54.686Z,103354.44
2023-02-28T09:00:26.726Z,103357.94
2023-02-28T09:02:58.876Z,103357.84
2023-02-28T09:05:31.045Z,103360.88
2023-02-28T09:08:03.038Z,103359.44
2023-02-28T09:10:36.071Z,103350.22
2023-02-28T09:13:08.232Z,103356.56
2023-02-28T09:15:40.710Z,103356.88
2023-02-28T09:18:12.961Z,103361.69
2023-02-28T09:20:45.680Z,103357.59
2023-02-28T09:23:18.191Z,103371.94
2023-02-28T09:25:55.647Z,103353.97
2023-02-28T09:28:28.109Z,103358.22
2023-02-28T09:31:00.321Z,103354.34
2023-02-28T09:33:32.357Z,103356.75
2023-02-28T09:36:05.091Z,103361.38
2023-02-28T09:38:37.282Z,103355.28
2023-02-28T09:41:16.250Z,103357.16
2023-02-28T09:43:57.141Z,103357.59
2023-02-28T09:46:40.896Z,103356.22
2023-02-28T09:49:19.833Z,103352.66
2023-02-28T09:51:59.820Z,103351.22
2023-02-28T09:54:33.964Z,103360.78
2023-02-28T09:57:08.169Z,103368.28
2023-02-28T10:00:13.272Z,103373.69
2023-02-28T10:03:19.987Z,103366.56
2023-02-28T10:06:04.695Z,103358.47
2023-02-28T10:09:14.516Z,103364.56
2023-02-28T10:14:23.295Z,103357.56
2023-02-28T10:17:03.278Z,103362.28
2023-02-28T10:19:46.017Z,103370.94
2023-02-28T10:22:31.122Z,103373.22
2023-02-28T10:25:19.512Z,103362.69
2023-02-28T10:28:02.248Z,103374.75
2023-02-28T10:30:34.344Z,103378.34
2023-02-28T10:33:06.423Z,103376.91
2023-02-28T10:35:38.604Z,103369.38
2023-02-28T10:38:24.877Z,103366.63
2023-02-28T10:41:35.804Z,103351.03
2023-02-28T10:44:34.480Z,103346.09
2023-02-28T10:47:06.548Z,103339.97
2023-02-28T10:49:50.622Z,103337.88
2023-02-28T10:52:40.674Z,103334.13
2023-02-28T10:55:28.723Z,103328.06
2023-02-28T10:58:01.583Z,103325.03
2023-02-28T11:00:36.444Z,103337.09
2023-02-28T11:03:37.256Z,103340.16
2023-02-28T11:06:35.121Z,103339.19
2023-02-28T11:09:26.819Z,103344.91
2023-02-28T11:11:59.067Z,103336.84
2023-02-28T11:14:44.466Z,103340.25
2023-02-28T11:17:28.558Z,103334.56
2023-02-28T11:20:11.624Z,103335.19
2023-02-28T11:22:46.559Z,103342.16
2023-02-28T11:25:27.500Z,103333.88
2023-02-28T11:28:06.139Z,103341.50
2023-02-28T11:30:43.134Z,103334.78
2023-02-28T11:33:30.824Z,103339.25
2023-02-28T11:36:14.739Z,103335.28
2023-02-28T11:38:47.930Z,103330.63
2023-02-28T11:42:15.569Z,103322.56
2023-02-28T11:45:38.887Z,103322.34
2023-02-28T11:48:55.167Z,103327.63
2023-02-28T11:51:36.983Z,103322.41
2023-02-28T11:54:55.136Z,103322.06
2023-02-28T11:57:55.566Z,103323.91
2023-02-28T12:00:41.621Z,103312.81
2023-02-28T12:03:57.585Z,103309.63
2023-02-28T12:06:38.964Z,103307.56
2023-02-28T12:09:29.692Z,103307.50
2023-02-28T12:12:51.795Z,103303.66
2023-02-28T12:15:42.962Z,103291.91
2023-02-28T12:18:55.261Z,103290.06
2023-02-28T12:21:52.205Z,103292.25
2023-02-28T12:25:01.311Z,103285.88
2023-02-28T12:27:39.314Z,103283.41
2023-02-28T12:30:35.441Z,103272.09
2023-02-28T12:33:10.923Z,103273.94
2023-02-28T12:35:56.902Z,103270.47
2023-02-28T12:38:36.321Z,103271.28
2023-02-28T12:41:35.000Z,103268.53
2023-02-28T12:44:22.709Z,103259.34
2023-02-28T12:47:00.848Z,103258.94
2023-02-28T12:49:50.747Z,103249.69
2023-02-28T12:52:54.760Z,103250.91
2023-02-28T12:56:11.402Z,103248.44
2023-02-28T12:58:52.601Z,103234.78
2023-02-28T13:01:29.264Z,103240.28
2023-02-28T13:04:35.274Z,103232.13
2023-02-28T13:07:42.294Z,103239.41
2023-02-28T13:10:17.286Z,103236.59
2023-02-28T13:12:55.101Z,103234.97
2023-02-28T13:15:29.824Z,103238.81
2023-02-28T13:18:01.978Z,103237.38
2023-02-28T13:20:48.857Z,103233.19
2023-02-28T13:23:48.152Z,103223.34
2023-02-28T13:26:20.241Z,103229.31
2023-02-28T13:29:12.025Z,103226.59
2023-02-28T13:32:09.633Z,103222.06
2023-02-28T13:34:53.765Z,103216.03
2023-02-28T13:37:25.809Z,103214.94
2023-02-28T13:40:10.966Z,103219.84
2023-02-28T13:42:50.822Z,103226.66
2023-02-28T13:45:28.932Z,103217.34
2023-02-28T13:48:26.743Z,103208.25
2023-02-28T13:50:59.237Z,103217.09
2023-02-28T13:53:53.538Z,103201.66
2023-02-28T13:57:14.594Z,103204.72
2023-02-28T14:00:22.849Z,103201.50
2023-02-28T14:03:35.589Z,103193.97
2023-02-28T14:06:11.602Z,103189.59
2023-02-28T14:09:00.316Z,103192.28
2023-02-28T14:11:39.322Z,103191.50
2023-02-28T14:14:37.227Z,103192.59
2023-02-28T14:17:18.380Z,103195.84
2023-02-28T14:19:51.373Z,103193.72
2023-02-28T14:22:51.409Z,103196.41
2023-02-28T14:25:46.877Z,103205.13
2023-02-28T14:29:01.545Z,103201.56
2023-02-28T14:31:45.603Z,103197.31
2023-02-28T14:34:28.588Z,103206.47
2023-02-28T14:37:03.838Z,103196.94
2023-02-28T14:39:37.964Z,103200.72
2023-02-28T14:42:45.003Z,103200.72
2023-02-28T14:45:24.273Z,103195.44
2023-02-28T14:47:57.703Z,103197.97
2023-02-28T14:50:36.852Z,103190.91
2023-02-28T14:53:19.960Z,103200.19
2023-02-28T14:55:53.926Z,103202.66
2023-02-28T14:58:31.635Z,103199.09
2023-02-28T15:01:05.245Z,103195.38
2023-02-28T15:03:40.450Z,103201.34
2023-02-28T15:06:18.598Z,103199.84
2023-02-28T15:09:10.249Z,103206.81
2023-02-28T15:11:43.858Z,103201.56
2023-02-28T15:14:22.935Z,103214.56
2023-02-28T15:17:09.459Z,103205.66
2023-02-28T15:19:51.533Z,103201.19
2023-02-28T15:22:37.390Z,103208.56
2023-02-28T15:25:15.134Z,103200.91
2023-02-28T15:27:52.506Z,103208.50
2023-02-28T15:30:31.270Z,103204.75
2023-02-28T15:33:12.564Z,103207.06
2023-02-28T15:35:49.066Z,103209.88
2023-02-28T15:38:28.925Z,103207.00
2023-02-28T15:41:00.953Z,103205.91
2023-02-28T15:43:38.538Z,103203.28
2023-02-28T15:46:14.448Z,103204.25
2023-02-28T15:48:55.769Z,103200.56
2023-02-28T15:51:37.329Z,103201.97
2023-02-28T15:54:16.639Z,103200.28
2023-02-28T15:56:54.381Z,103207.44
2023-02-28T15:59:30.126Z,103197.78
2023-02-28T16:02:23.188Z,103202.84
2023-02-28T16:05:28.838Z,103193.69
2023-02-28T16:08:14.689Z,103191.97
2023-02-28T16:10:46.891Z,103186.84
2023-02-28T16:13:19.046Z,103192.78
2023-02-28T16:15:52.471Z,103193.47
2023-02-28T16:18:25.532Z,103195.84
2023-02-28T16:21:00.845Z,103194.38
2023-02-28T16:23:32.790Z,103192.75
2023-02-28T16:26:06.582Z,103186.44
2023-02-28T16:28:43.011Z,103180.19
2023-02-28T16:31:17.660Z,103191.19
2023-02-28T16:33:50.012Z,103192.00
2023-02-28T16:36:27.504Z,103188.28
2023-02-28T16:38:59.593Z,103189.84
2023-02-28T16:41:32.251Z,103191.56
2023-02-28T16:44:15.600Z,103190.44
2023-02-28T16:46:47.865Z,103196.16
2023-02-28T16:49:19.966Z,103190.88
2023-02-28T16:51:52.014Z,103196.97
2023-02-28T16:54:24.106Z,103200.13
2023-02-28T16:56:56.161Z,103200.69
2023-02-28T16:59:29.642Z,103201.22
2023-02-28T17:02:20.005Z,103211.28
2023-02-28T17:04:52.063Z,103204.97
2023-02-28T17:07:24.084Z,103211.88
2023-02-28T17:09:56.181Z,103217.72
2023-02-28T17:12:28.529Z,103214.81
2023-02-28T17:15:00.663Z,103219.75
2023-02-28T17:17:33.160Z,103220.41
2023-02-28T17:20:06.981Z,103221.88
2023-02-28T17:22:39.916Z,103214.66
2023-02-28T17:25:12.249Z,103225.69
2023-02-28T17:27:44.574Z,103216.72
2023-02-28T17:30:19.538Z,103221.66
2023-02-28T17:32:51.870Z,103229.19
2023-02-28T17:35:25.477Z,103234.31
2023-02-28T17:37:57.701Z,103224.50
2023-02-28T17:40:29.913Z,103230.31
2023-02-28T17:43:02.381Z,103228.47
2023-02-28T17:45:36.753Z,103236.06
2023-02-28T17:48:12.372Z,103233.22
2023-02-28T17:50:44.561Z,103233.78
2023-02-28T17:53:16.640Z,103237.94
2023-02-28T17:55:48.609Z,103229.16
2023-02-28T17:58:20.642Z,103231.84
2023-02-28T18:00:55.552Z,103231.69
2023-02-28T18:03:29.244Z,103234.19
2023-02-28T18:06:01.990Z,103228.84
2023-02-28T18:08:36.379Z,103241.63
2023-02-28T18:11:18.181Z,103239.59
2023-02-28T18:13:54.130Z,103241.28
2023-02-28T18:16:27.689Z,103236.75
2023-02-28T18:18:59.918Z,103233.19
2023-02-28T18:21:32.265Z,103233.88
2023-02-28T18:24:04.967Z,103232.81
2023-02-28T18:26:38.788Z,103228.34
2023-02-28T18:29:20.272Z,103228.16
2023-02-28T18:31:54.010Z,103235.84
2023-02-28T18:34:26.685Z,103233.00
2023-02-28T18:36:58.733Z,103228.63
2023-02-28T18:39:31.657Z,103228.47
2023-02-28T18:42:03.948Z,103224.00
2023-02-28T18:44:38.200Z,103234.28
2023-02-28T18:47:11.096Z,103223.66
2023-02-28T18:49:43.124Z,103231.25
2023-02-28T18:52:16.481Z,103223.22
2023-02-28T18:54:48.731Z,103223.84
2023-02-28T18:57:20.767Z,103224.56
2023-02-28T18:59:52.960Z,103213.16
2023-02-28T19:02:25.086Z,103222.44
2023-02-28T19:04:57.260Z,103230.84
2023-02-28T19:07:29.337Z,103228.16
2023-02-28T19:10:01.540Z,103225.56
2023-02-28T19:12:38.111Z,103223.59
2023-02-28T19:15:11.993Z,103227.97
2023-02-28T19:17:44.330Z,103225.94
2023-02-28T19:20:17.102Z,103224.03
2023-02-28T19:22:49.182Z,103222.88
2023-02-28T19:25:25.250Z,103222.69
2023-02-28T19:28:00.693Z,103225.09
2023-02-28T19:30:32.852Z,103230.19
2023-02-28T19:33:05.324Z,103224.81
2023-02-28T19:35:40.441Z,103226.44
2023-02-28T19:38:13.119Z,103227.94
2023-02-28T19:40:49.416Z,103233.84
2023-02-28T19:43:21.674Z,103239.81
2023-02-28T19:45:53.726Z,103244.91
2023-02-28T19:48:28.133Z,103246.69
2023-02-28T19:51:12.903Z,103251.78
2023-02-28T19:53:45.122Z,103252.56
2023-02-28T19:56:17.346Z,103256.06
2023-02-28T19:58:49.664Z,103263.00
2023-02-28T20:01:21.932Z,103260.16
2023-02-28T20:03:53.932Z,103261.75
2023-02-28T20:06:26.109Z,103261.56
2023-02-28T20:08:58.381Z,103263.19
2023-02-28T20:11:30.898Z,103262.09
2023-02-28T20:14:05.472Z,103259.22
2023-02-28T20:16:38.018Z,103268.59
2023-02-28T20:19:10.334Z,103262.34
2023-02-28T20:21:44.147Z,103260.38
2023-02-28T20:24:16.584Z,103255.81
2023-02-28T20:26:48.923Z,103263.47
2023-02-28T20:29:21.181Z,103252.91
2023-02-28T20:31:53.728Z,103257.91
2023-02-28T20:34:25.873Z,103256.00
2023-02-28T20:36:58.940Z,103260.19
2023-02-28T20:39:31.314Z,103264.47
2023-02-28T20:42:03.501Z,103262.59
2023-02-28T20:44:35.775Z,103264.09
2023-02-28T20:47:07.977Z,103253.66
2023-02-28T20:49:39.971Z,103257.75
2023-02-28T20:52:12.047Z,103261.03
2023-02-28T20:54:44.509Z,103263.53
2023-02-28T20:57:16.538Z,103262.44
2023-02-28T20:59:51.318Z,103270.00
2023-02-28T21:02:23.544Z,103270.81
2023-02-28T21:04:55.692Z,103278.47
2023-02-28T21:07:30.883Z,103274.81
2023-02-28T21:10:03.301Z,103278.19
2023-02-28T21:12:35.415Z,103273.81
2023-02-28T21:15:08.490Z,103271.03
2023-02-28T21:17:40.470Z,103271.81
2023-02-28T21:20:12.729Z,103273.31
2023-02-28T21:22:45.117Z,103274.03
2023-02-28T21:25:17.305Z,103277.31
2023-02-28T21:27:49.365Z,103281.38
2023-02-28T21:30:22.548Z,103275.22
2023-02-28T21:32:54.592Z,103276.81
2023-02-28T21:35:27.089Z,103281.78
2023-02-28T21:38:01.548Z,103267.75
2023-02-28T21:40:34.421Z,103274.41
2023-02-28T21:43:06.891Z,103268.94
2023-02-28T21:45:39.087Z,103274.91
2023-02-28T21:48:11.151Z,103275.59
2023-02-28T21:50:43.269Z,103271.03
2023-02-28T21:53:15.576Z,103270.94
2023-02-28T21:55:47.683Z,103276.91
2023-02-28T21:58:19.719Z,103281.88
2023-02-28T22:00:51.819Z,103277.31
2023-02-28T22:03:23.875Z,103281.47
2023-02-28T22:05:55.976Z,103280.38
2023-02-28T22:08:28.362Z,103282.84
2023-02-28T22:11:03.734Z,103280.47
2023-02-28T22:13:37.633Z,103285.44
2023-02-28T22:16:13.831Z,103281.97
2023-02-28T22:18:46.991Z,103283.66
2023-02-28T22:21:20.115Z,103290.31
2023-02-28T22:23:52.490Z,103290.19
2023-02-28T22:26:24.681Z,103285.72
2023-02-28T22:28:57.077Z,103282.84
2023-02-28T22:31:32.609Z,103284.44
2023-02-28T22:34:08.833Z,103286.03
2023-02-28T22:36:43.262Z,103290.88
2023-02-28T22:39:15.372Z,103285.31
2023-02-28T22:41:47.468Z,103281.72
2023-02-28T22:44:19.533Z,103282.63
2023-02-28T22:46:55.275Z,103274.09
2023-02-28T22:49:27.399Z,103273.28
2023-02-28T22:51:59.411Z,103269.81
2023-02-28T22:54:31.524Z,103272.97
2023-02-28T22:57:06.580Z,103258.25
2023-02-28T22:59:38.724Z,103259.94
2023-02-28T23:02:10.805Z,103259.06
2023-02-28T23:04:46.691Z,103257.25
2023-02-28T23:07:18.685Z,103265.81
2023-02-28T23:09:51.325Z,103265.59
2023-02-28T23:12:24.383Z,103268.97
2023-02-28T23:14:57.563Z,103269.66
2023-02-28T23:17:32.359Z,103275.63
2023-02-28T23:20:04.860Z,103272.81
2023-02-28T23:22:36.928Z,103275.19
2023-02-28T23:25:09.238Z,103271.53
2023-02-28T23:27:41.851Z,103274.22
2023-02-28T23:30:17.995Z,103278.47
2023-02-28T23:32:50.929Z,103281.84
2023-02-28T23:35:23.069Z,103280.06
2023-02-28T23:37:58.424Z,103283.22
2023-02-28T23:40:30.520Z,103281.31
2023-02-28T23:43:02.880Z,103293.31
2023-02-28T23:45:35.079Z,103290.53
2023-02-28T23:48:07.388Z,103294.69
2023-02-28T23:50:39.511Z,103298.84
2023-02-28T23:53:11.521Z,103290.13
2023-02-28T23:55:47.803Z,103298.75
2023-02-28T23:58:19.815Z,103295.84
